Terminal Aerodrome Forecast
Issued by NWS

Home | Current Version | Previous Version | Text Only | Print | Product List | Glossary On
Versions: 1 2 3 4 5 6 7 8 9 10 11 12 13 14
725
FTUS41 KBTV 221120
TAFRUT
TAF
KRUT 221120Z 2212/2312 25004KT P6SM BKN100
     FM221500 30010G18KT P6SM SCT090
     FM230000 30007KT P6SM SCT080
      AMD LTD TO CLD VIS AND WIND=

USA.gov is the U.S. government's official web portal to all federal, state and local government web resources and services.